Time;durP1;ratioP1;P1;durP2;ratioP2;P2;SDS_P1;SDS_P2;PMS_P1;PMS_P2;Temp;Humidity;BMP_temperature;BMP_pressure;BME280_temperature;BME280_humidity;BME280_pressure;Samples;Min_cycle;Max_cycle;Signal;HPM_P1;HPM_P2
2022/10/22 00:05:43;;;;;;;1.70;1.00;;;;;17.40;98659.00;;;;16605827;28;20353;-48
2022/10/22 00:13:48;;;;;;;1.63;0.87;;;;;17.40;98654.00;;;;16606041;28;20215;-48
2022/10/22 00:21:50;;;;;;;2.53;0.87;;;;;17.50;98642.00;;;;16604951;28;20211;-48
2022/10/22 00:29:54;;;;;;;4.10;1.13;;;;;17.20;98640.00;;;;16595294;28;20306;-48
2022/10/22 00:37:56;;;;;;;0.70;0.60;;;;;17.30;98641.00;;;;16622023;28;20231;-48
2022/10/22 00:46:00;;;;;;;1.80;0.70;;;;;17.40;98636.00;;;;16642803;28;20226;-48
2022/10/22 00:54:06;;;;;;;0.60;0.60;;;;;17.50;98633.00;;;;16646526;28;20227;-48
2022/10/22 01:02:10;;;;;;;3.33;0.70;;;;;17.40;98629.00;;;;16633739;28;20202;-48
2022/10/22 01:10:20;;;;;;;0.97;0.80;;;;;17.30;98634.00;;;;16623269;28;20315;-48
2022/10/22 01:18:30;;;;;;;0.90;0.80;;;;;17.10;98633.00;;;;16639431;28;20227;-47
2022/10/22 01:26:40;;;;;;;0.90;0.73;;;;;16.90;98615.00;;;;16625443;28;20221;-47
2022/10/22 01:34:47;;;;;;;2.20;1.70;;;;;17.00;98593.00;;;;16617272;28;20226;-47
2022/10/22 01:42:57;;;;;;;3.40;0.60;;;;;16.80;98594.00;;;;16639637;28;20213;-48
2022/10/22 01:51:25;;;;;;;0.80;0.80;;;;;16.80;98596.00;;;;16649070;28;20231;-48
2022/10/22 01:59:34;;;;;;;1.60;0.90;;;;;17.00;98606.00;;;;16618394;28;20277;-48
2022/10/22 02:07:43;;;;;;;1.27;0.70;;;;;17.50;98598.00;;;;16634652;28;20905;-48
2022/10/22 02:15:46;;;;;;;2.30;0.80;;;;;17.00;98633.00;;;;16631277;28;20236;-49
2022/10/22 02:23:50;;;;;;;1.67;0.80;;;;;17.30;98633.00;;;;16647520;28;20209;-48
2022/10/22 02:31:54;;;;;;;1.17;0.90;;;;;17.50;98641.00;;;;16628400;28;20302;-48
2022/10/22 02:39:58;;;;;;;1.60;0.80;;;;;16.90;98632.00;;;;16636606;28;20227;-48
2022/10/22 02:48:01;;;;;;;3.37;1.10;;;;;16.70;98631.00;;;;16652023;28;20252;-48
2022/10/22 02:56:05;;;;;;;1.27;1.10;;;;;16.90;98640.00;;;;16657518;28;20232;-47
2022/10/22 03:04:07;;;;;;;1.60;1.30;;;;;17.10;98638.00;;;;16619774;28;20317;-48
2022/10/22 03:12:11;;;;;;;3.50;1.77;;;;;16.40;98639.00;;;;16643657;28;20226;-48
2022/10/22 03:20:14;;;;;;;1.63;1.17;;;;;16.50;98621.00;;;;16642911;28;20219;-48
2022/10/22 03:28:18;;;;;;;5.03;1.20;;;;;16.70;98621.00;;;;16652190;28;20313;-48
2022/10/22 03:36:20;;;;;;;2.50;1.27;;;;;16.50;98603.00;;;;16621788;28;20222;-48
2022/10/22 03:44:24;;;;;;;1.33;1.10;;;;;16.90;98599.00;;;;16650619;28;20301;-48
2022/10/22 03:52:27;;;;;;;1.27;1.17;;;;;16.70;98617.00;;;;16650161;28;20583;-47
2022/10/22 04:00:30;;;;;;;2.90;1.33;;;;;16.60;98632.00;;;;16638447;28;20231;-48
2022/10/22 04:08:33;;;;;;;1.10;1.10;;;;;16.60;98617.00;;;;16626086;28;20301;-47
2022/10/22 04:16:38;;;;;;;1.30;1.20;;;;;16.90;98609.00;;;;16635024;28;20251;-47
2022/10/22 04:24:41;;;;;;;2.07;1.07;;;;;17.20;98648.00;;;;16648582;28;20905;-47
2022/10/22 04:32:44;;;;;;;2.23;1.20;;;;;16.50;98639.00;;;;16624254;28;20250;-48
2022/10/22 04:40:47;;;;;;;4.07;1.50;;;;;16.40;98635.00;;;;16630609;28;20240;-47
2022/10/22 04:48:51;;;;;;;2.23;1.07;;;;;16.60;98639.00;;;;16646286;28;20803;-48
2022/10/22 04:56:54;;;;;;;1.07;1.00;;;;;16.20;98650.00;;;;16646281;28;20229;-48
2022/10/22 05:04:58;;;;;;;2.97;1.43;;;;;16.40;98661.00;;;;16639573;28;20218;-48
2022/10/22 05:13:00;;;;;;;1.97;1.47;;;;;16.70;98657.00;;;;16598341;28;20238;-48
2022/10/22 05:21:04;;;;;;;2.27;1.10;;;;;16.90;98653.00;;;;16619866;28;20214;-48
2022/10/22 05:29:06;;;;;;;1.50;1.07;;;;;16.70;98669.00;;;;16640794;28;20230;-48
2022/10/22 05:37:10;;;;;;;3.93;1.27;;;;;16.10;98684.00;;;;16629530;28;20883;-48
2022/10/22 05:45:13;;;;;;;1.70;1.50;;;;;16.50;98715.00;;;;16607141;28;20219;-48
2022/10/22 05:53:17;;;;;;;1.73;1.20;;;;;16.50;98749.00;;;;16614130;28;20725;-48
2022/10/22 06:01:21;;;;;;;2.30;1.20;;;;;16.80;98749.00;;;;16628868;28;20290;-48
2022/10/22 06:09:27;;;;;;;8.53;1.77;;;;;16.60;98756.00;;;;16629459;28;20281;-47
2022/10/22 06:17:29;;;;;;;1.53;1.10;;;;;16.50;98775.00;;;;16608887;28;20332;-48
2022/10/22 06:25:33;;;;;;;4.80;1.80;;;;;16.40;98773.00;;;;16613483;28;20223;-48
2022/10/22 06:33:41;;;;;;;4.83;1.30;;;;;16.50;98800.00;;;;16623895;28;20686;-48
2022/10/22 06:41:45;;;;;;;2.77;1.70;;;;;16.40;98813.00;;;;16619068;28;20250;-49
2022/10/22 06:49:52;;;;;;;4.13;1.93;;;;;16.50;98815.00;;;;16609358;28;20234;-47
2022/10/22 06:57:56;;;;;;;4.37;1.60;;;;;16.40;98825.00;;;;16610362;28;20706;-47
2022/10/22 07:06:03;;;;;;;6.03;1.63;;;;;16.50;98836.00;;;;16605917;28;20222;-47
2022/10/22 07:14:06;;;;;;;2.00;1.50;;;;;16.60;98848.00;;;;16606956;28;20222;-46
2022/10/22 07:22:09;;;;;;;2.90;1.50;;;;;16.70;98854.00;;;;16617590;28;20562;-47
2022/10/22 07:30:13;;;;;;;7.10;2.20;;;;;16.70;98863.00;;;;16609110;28;20215;-47
2022/10/22 07:38:16;;;;;;;3.67;2.00;;;;;16.90;98874.00;;;;16623378;28;20729;-47
2022/10/22 07:46:19;;;;;;;5.27;2.17;;;;;16.90;98875.00;;;;16632431;28;20297;-47
2022/10/22 07:54:22;;;;;;;3.20;2.83;;;;;17.40;98879.00;;;;16620983;28;20224;-46
2022/10/22 08:02:26;;;;;;;2.63;1.93;;;;;17.40;98883.00;;;;16625243;28;20191;-47
2022/10/22 08:10:28;;;;;;;2.47;2.13;;;;;17.30;98891.00;;;;16633616;28;20722;-47
2022/10/22 08:18:32;;;;;;;5.97;3.50;;;;;17.50;98903.00;;;;16636342;28;20253;-47
2022/10/22 08:26:34;;;;;;;4.97;3.03;;;;;17.60;98899.00;;;;16632889;28;20287;-47
2022/10/22 08:34:38;;;;;;;2.97;2.30;;;;;18.40;98899.00;;;;16600017;28;20238;-47
2022/10/22 08:43:13;;;;;;;5.27;2.20;;;;;18.40;98899.00;;;;16614293;28;20194;-47
2022/10/22 08:51:19;;;;;;;2.90;1.93;;;;;19.10;98894.00;;;;16603203;28;20226;-47
2022/10/22 08:59:25;;;;;;;2.40;1.83;;;;;20.00;98891.00;;;;16617312;28;20227;-47
2022/10/22 09:07:29;;;;;;;7.83;6.43;;;;;20.10;98888.00;;;;16591533;28;20219;-47
2022/10/22 09:15:32;;;;;;;3.30;1.47;;;;;20.10;98895.00;;;;16621226;28;20230;-48
2022/10/22 09:23:40;;;;;;;1.80;0.93;;;;;20.40;98913.00;;;;16627359;28;20191;-47
2022/10/22 09:31:42;;;;;;;4.00;1.73;;;;;20.70;98907.00;;;;16619682;28;20230;-47
2022/10/22 09:39:47;;;;;;;2.57;1.23;;;;;22.00;98903.00;;;;16627306;28;20227;-47
2022/10/22 09:47:50;;;;;;;1.93;1.20;;;;;21.90;98903.00;;;;16616505;28;20581;-47
2022/10/22 09:55:55;;;;;;;4.77;0.97;;;;;22.00;98918.00;;;;16640538;28;20292;-48
2022/10/22 10:04:04;;;;;;;1.33;1.00;;;;;22.20;98916.00;;;;16626242;28;20195;-47
2022/10/22 10:12:18;;;;;;;1.60;0.80;;;;;23.00;98925.00;;;;16624081;28;20231;-47
2022/10/22 10:20:28;;;;;;;2.23;1.03;;;;;22.70;98930.00;;;;16628117;28;20230;-47
2022/10/22 10:28:55;;;;;;;1.40;1.20;;;;;23.40;98933.00;;;;16623790;28;20690;-46
2022/10/22 10:37:05;;;;;;;1.43;0.80;;;;;23.60;98930.00;;;;16612495;28;20705;-47
2022/10/22 10:45:17;;;;;;;2.10;1.00;;;;;23.40;98938.00;;;;16640460;28;20606;-48
2022/10/22 10:53:28;;;;;;;1.27;0.80;;;;;24.90;98946.00;;;;16644742;28;20224;-48
2022/10/22 11:01:37;;;;;;;1.77;0.87;;;;;23.50;98954.00;;;;16644340;28;20218;-47
2022/10/22 11:09:42;;;;;;;1.80;0.90;;;;;22.60;98953.00;;;;16638836;28;20284;-47
2022/10/22 11:17:48;;;;;;;1.97;0.97;;;;;23.80;98945.00;;;;16641446;28;20744;-48
2022/10/22 11:25:51;;;;;;;2.30;1.37;;;;;23.10;98937.00;;;;16642706;28;20233;-48
2022/10/22 11:33:59;;;;;;;2.83;0.87;;;;;22.90;98942.00;;;;16624399;28;20650;-47
2022/10/22 11:42:05;;;;;;;2.30;1.03;;;;;23.10;98935.00;;;;16630092;28;20200;-47
2022/10/22 11:50:27;;;;;;;0.87;0.87;;;;;23.70;98924.00;;;;16621908;28;20281;-47
2022/10/22 11:58:38;;;;;;;2.27;1.00;;;;;27.40;98909.00;;;;16621135;28;20228;-48
2022/10/22 12:06:54;;;;;;;1.17;0.83;;;;;25.80;98903.00;;;;16618566;28;20222;-48
2022/10/22 12:14:58;;;;;;;1.13;0.97;;;;;26.90;98907.00;;;;16632610;28;20226;-48
2022/10/22 12:23:02;;;;;;;2.30;0.97;;;;;25.00;98908.00;;;;16619898;28;20203;-48
2022/10/22 12:31:04;;;;;;;2.23;1.00;;;;;25.00;98916.00;;;;16590957;28;20756;-47
2022/10/22 12:39:14;;;;;;;3.23;1.07;;;;;26.90;98909.00;;;;16633858;28;20306;-47
2022/10/22 12:47:17;;;;;;;1.73;0.87;;;;;25.00;98895.00;;;;16624934;28;20220;-48
2022/10/22 12:55:24;;;;;;;2.07;1.63;;;;;25.90;98913.00;;;;16623327;28;20223;-47
2022/10/22 13:03:30;;;;;;;2.90;1.00;;;;;28.30;98906.00;;;;16612979;28;20210;-48
2022/10/22 13:11:37;;;;;;;1.60;1.07;;;;;29.80;98897.00;;;;16631399;28;20316;-48
2022/10/22 13:19:43;;;;;;;4.53;1.60;;;;;31.00;98895.00;;;;16637894;28;20219;-48
2022/10/22 13:27:48;;;;;;;2.63;1.00;;;;;31.00;98886.00;;;;16636959;28;20335;-48
2022/10/22 13:35:50;;;;;;;1.63;0.70;;;;;26.40;98900.00;;;;16625992;28;20212;-48
2022/10/22 13:43:55;;;;;;;0.77;0.60;;;;;29.80;98892.00;;;;16643215;28;20203;-48
2022/10/22 13:51:59;;;;;;;1.33;0.90;;;;;30.30;98888.00;;;;16656010;28;20206;-49
2022/10/22 14:00:03;;;;;;;2.43;1.30;;;;;29.30;98895.00;;;;16648911;28;20302;-47
2022/10/22 14:08:16;;;;;;;2.07;1.10;;;;;28.00;98905.00;;;;16647556;28;20231;-48
2022/10/22 14:16:23;;;;;;;2.17;1.30;;;;;27.30;98912.00;;;;16642104;28;20727;-48
2022/10/22 14:24:25;;;;;;;2.20;1.03;;;;;27.30;98905.00;;;;16654823;28;20222;-48
2022/10/22 14:32:29;;;;;;;3.57;1.50;;;;;27.20;98909.00;;;;16637223;28;20257;-48
2022/10/22 14:40:31;;;;;;;3.27;1.63;;;;;26.60;98906.00;;;;16647759;28;20230;-48
2022/10/22 14:48:35;;;;;;;3.00;1.30;;;;;26.00;98909.00;;;;16650121;28;20219;-48
2022/10/22 14:56:38;;;;;;;2.90;1.27;;;;;26.30;98921.00;;;;16644965;28;20231;-48
2022/10/22 15:04:42;;;;;;;5.57;2.53;;;;;26.50;98919.00;;;;16640954;28;20950;-48
2022/10/22 15:12:44;;;;;;;3.20;2.17;;;;;26.30;98921.00;;;;16633290;28;20217;-48
2022/10/22 15:20:55;;;;;;;27.23;13.97;;;;;23.40;98945.00;;;;16634104;28;20317;-48
2022/10/22 15:28:58;;;;;;;6.53;4.27;;;;;23.70;98940.00;;;;16631809;28;20581;-48
2022/10/22 15:37:03;;;;;;;53.50;20.90;;;;;23.70;98940.00;;;;16632634;28;20709;-48
2022/10/22 15:45:07;;;;;;;15.70;7.03;;;;;20.70;98951.00;;;;16632124;28;20223;-48
2022/10/22 15:53:11;;;;;;;14.60;6.10;;;;;20.60;98957.00;;;;16620988;28;20231;-48
2022/10/22 16:01:15;;;;;;;12.00;4.63;;;;;19.70;98968.00;;;;16629002;28;20293;-47
2022/10/22 16:09:21;;;;;;;5.50;2.77;;;;;19.50;98965.00;;;;16620782;28;20863;-48
2022/10/22 16:17:23;;;;;;;15.73;3.63;;;;;18.60;98974.00;;;;16613917;28;20217;-48
2022/10/22 16:25:28;;;;;;;5.90;3.70;;;;;18.10;98964.00;;;;16632583;28;20222;-48
2022/10/22 16:33:30;;;;;;;10.17;4.97;;;;;18.10;98970.00;;;;16631305;28;20215;-47
2022/10/22 16:41:37;;;;;;;6.73;2.73;;;;;18.20;98971.00;;;;16627165;28;20229;-48
2022/10/22 16:49:39;;;;;;;9.87;3.87;;;;;17.60;98984.00;;;;16631359;28;20215;-48
2022/10/22 16:57:43;;;;;;;8.00;3.70;;;;;17.40;98997.00;;;;16626782;28;20313;-48
2022/10/22 17:05:45;;;;;;;6.63;3.30;;;;;17.20;99004.00;;;;16629283;28;20219;-48
2022/10/22 17:13:51;;;;;;;18.47;12.23;;;;;17.00;99006.00;;;;16638361;28;20215;-48
2022/10/22 17:21:53;;;;;;;36.90;33.00;;;;;16.80;98993.00;;;;16635093;28;20783;-48
2022/10/22 17:29:57;;;;;;;13.33;8.80;;;;;17.10;99005.00;;;;16638574;28;20754;-48
2022/10/22 17:38:00;;;;;;;7.80;4.30;;;;;16.80;99019.00;;;;16641100;28;20240;-48
2022/10/22 17:46:10;;;;;;;16.63;7.07;;;;;17.00;99014.00;;;;16637985;28;20852;-48
2022/10/22 17:54:12;;;;;;;14.73;6.97;;;;;16.80;99036.00;;;;16641789;28;20230;-48
2022/10/22 18:02:17;;;;;;;9.57;4.50;;;;;16.50;99038.00;;;;16643783;28;20207;-48
2022/10/22 18:10:20;;;;;;;10.73;5.80;;;;;16.10;99041.00;;;;16654641;28;20229;-47
2022/10/22 18:18:24;;;;;;;11.17;8.17;;;;;16.10;99035.00;;;;16644900;28;20230;-48
2022/10/22 18:26:26;;;;;;;10.77;8.50;;;;;15.60;99048.00;;;;16642032;28;20225;-48
2022/10/22 18:34:31;;;;;;;15.27;6.20;;;;;15.80;99038.00;;;;16645413;28;20320;-48
2022/10/22 18:42:36;;;;;;;13.00;6.27;;;;;15.90;99033.00;;;;16643368;28;20210;-46
2022/10/22 18:50:40;;;;;;;6.73;5.07;;;;;15.80;99030.00;;;;16642598;28;20222;-48
2022/10/22 18:58:44;;;;;;;10.07;5.23;;;;;15.20;99035.00;;;;16638457;28;20245;-48
2022/10/22 19:06:48;;;;;;;9.40;5.23;;;;;15.10;99035.00;;;;16633197;28;20237;-47
2022/10/22 19:14:51;;;;;;;11.70;8.37;;;;;15.20;99024.00;;;;16633232;28;20234;-48
2022/10/22 19:22:56;;;;;;;9.43;5.30;;;;;15.70;99033.00;;;;16629249;28;20199;-48
2022/10/22 19:30:58;;;;;;;8.90;7.77;;;;;15.90;99030.00;;;;16631830;28;20290;-48
2022/10/22 19:39:03;;;;;;;7.13;5.30;;;;;15.30;99034.00;;;;16625374;28;20257;-47
2022/10/22 19:47:06;;;;;;;6.90;4.60;;;;;15.30;99033.00;;;;16633458;28;20245;-48
2022/10/22 19:55:09;;;;;;;6.40;5.17;;;;;15.30;99022.00;;;;16631785;28;20219;-48
2022/10/22 20:03:13;;;;;;;9.30;5.57;;;;;15.00;99027.00;;;;16629191;28;20241;-48
2022/10/22 20:11:22;;;;;;;7.93;6.13;;;;;15.10;99029.00;;;;16628900;28;20229;-48
2022/10/22 20:19:27;;;;;;;22.17;20.20;;;;;15.00;99037.00;;;;16626554;28;20329;-49
2022/10/22 20:27:31;;;;;;;12.60;7.50;;;;;15.20;99040.00;;;;16637774;28;20225;-48
2022/10/22 20:35:33;;;;;;;12.00;7.70;;;;;15.10;99035.00;;;;16625544;28;20888;-47
2022/10/22 20:43:37;;;;;;;8.47;7.30;;;;;15.10;99040.00;;;;16631874;28;20198;-48
2022/10/22 20:51:40;;;;;;;10.13;6.73;;;;;15.10;99041.00;;;;16635535;28;20319;-48
2022/10/22 20:59:44;;;;;;;13.90;7.40;;;;;15.80;99035.00;;;;16637159;28;20210;-48
2022/10/22 21:07:47;;;;;;;11.00;7.10;;;;;15.30;99029.00;;;;16639961;28;20217;-48
2022/10/22 21:15:50;;;;;;;14.33;10.50;;;;;15.80;99030.00;;;;16627970;28;20230;-48
2022/10/22 21:23:53;;;;;;;14.63;8.37;;;;;15.90;99025.00;;;;16629956;28;20666;-49
2022/10/22 21:31:57;;;;;;;15.87;6.70;;;;;14.60;99022.00;;;;16623737;28;20199;-48
2022/10/22 21:40:00;;;;;;;8.77;7.10;;;;;15.30;99035.00;;;;16619978;28;20288;-48
2022/10/22 21:48:04;;;;;;;11.43;7.37;;;;;14.80;99022.00;;;;16624071;28;20225;-48
2022/10/22 21:56:07;;;;;;;7.30;5.70;;;;;14.80;99025.00;;;;16616214;28;20689;-47
2022/10/22 22:04:11;;;;;;;6.57;5.77;;;;;14.90;99033.00;;;;16637725;28;20916;-48
2022/10/22 22:12:13;;;;;;;8.83;5.93;;;;;14.90;99025.00;;;;16641833;28;20258;-49
2022/10/22 22:20:17;;;;;;;8.80;5.73;;;;;15.10;99026.00;;;;16647618;28;20301;-48
2022/10/22 22:28:20;;;;;;;6.87;5.23;;;;;14.60;99020.00;;;;16655691;28;20226;-48
2022/10/22 22:36:23;;;;;;;9.53;6.00;;;;;14.40;99033.00;;;;16642181;28;20231;-49
2022/10/22 22:44:26;;;;;;;8.97;5.80;;;;;14.80;99031.00;;;;16650620;28;20218;-48
2022/10/22 22:52:30;;;;;;;7.47;5.03;;;;;14.70;99028.00;;;;16651309;28;20198;-48
2022/10/22 23:00:32;;;;;;;6.20;5.57;;;;;14.20;99014.00;;;;16637814;28;20234;-48
2022/10/22 23:08:36;;;;;;;11.60;6.20;;;;;14.10;99019.00;;;;16645648;28;20516;-48
2022/10/22 23:16:41;;;;;;;9.27;5.47;;;;;14.30;99014.00;;;;16647820;28;20231;-48
2022/10/22 23:24:45;;;;;;;6.80;6.10;;;;;14.30;98994.00;;;;16640914;28;20225;-48
2022/10/22 23:32:47;;;;;;;7.07;6.37;;;;;14.30;98977.00;;;;16641145;28;20198;-47
2022/10/22 23:40:56;;;;;;;6.40;5.33;;;;;14.00;98982.00;;;;16645526;28;20234;-48
2022/10/22 23:48:58;;;;;;;7.30;6.60;;;;;14.70;98982.00;;;;16650548;28;20223;-48
2022/10/22 23:57:02;;;;;;;7.47;6.50;;;;;14.40;98976.00;;;;16650877;28;20230;-48
